Main page
METAR-TAF:

METAR-TAF

Airports :

Skyros Island National Airport

Skyros, Greece

latitude: 38-58-03N, longitude: 024-29-14E, elevation: 13 m

METAR: missing

Time: 03:34 (01:34 UTC)

Forecast

The report was made 2 hours and 34 minutes ago, at 23:00 UTC
Forecast valid from 15 at 00 UTC to 15 at 09 UTC
Wind 10 kt from the South
Visibility 10 km or more
Few clouds at a height of 2000 ft
Probability 30% :
Temporary
from 15 at 03 UTC to 15 at 07 UTC
Visibility: 5000 m
Few clouds at a height of 1800 ft, Cumulonimbus.
Broken clouds at a height of 2000 ft
thunderstorm, rain
Becoming
from 15 at 03 UTC to 15 at 05 UTC
Wind 8 kt from the Northwest

TAF: LGSY 142300Z 1500/1509 19010KT 9999 FEW020 PROB30 TEMPO 1503/1507 5000 TSRA FEW018CB BKN020 BECMG 1503/1505 32008KT

Weather observations and forecasts of more than 4000 airports (METAR and TAF reports).

The available stations are represented by yellow and red dots on the map.

Hover mouse over dot to see the name of the station.

Then click to see weather observations and forecasts.

To change the map : click on the green buttons with a black cross to zoom in, on the green button with a dash to zoom out, or on the green arrows for adjacent maps.


METAR-TAF: